sensor_id;sensor_type;location;lat;lon;timestamp;temperature;humidity
7512;DHT22;9999;48.780;9.146;2023-02-28T00:00:40;-1.20;99.90
7512;DHT22;9999;48.780;9.146;2023-02-28T00:03:07;-1.20;99.90
7512;DHT22;9999;48.780;9.146;2023-02-28T00:05:34;-1.20;99.90
7512;DHT22;9999;48.780;9.146;2023-02-28T00:08:01;-1.30;99.90
7512;DHT22;9999;48.780;9.146;2023-02-28T00:10:29;-1.30;99.90
7512;DHT22;9999;48.780;9.146;2023-02-28T00:13:00;-1.20;99.90
7512;DHT22;9999;48.780;9.146;2023-02-28T00:15:28;-1.20;99.90
7512;DHT22;9999;48.780;9.146;2023-02-28T00:17:55;-1.30;99.90
7512;DHT22;9999;48.780;9.146;2023-02-28T00:20:22;-1.30;99.90
7512;DHT22;9999;48.780;9.146;2023-02-28T00:22:51;-1.30;99.90
7512;DHT22;9999;48.780;9.146;2023-02-28T00:25:21;-1.40;99.90
7512;DHT22;9999;48.780;9.146;2023-02-28T00:27:48;-1.40;99.90
7512;DHT22;9999;48.780;9.146;2023-02-28T00:30:17;-1.40;99.90
7512;DHT22;9999;48.780;9.146;2023-02-28T00:32:46;-1.40;99.90
7512;DHT22;9999;48.780;9.146;2023-02-28T00:35:13;-1.40;99.90
7512;DHT22;9999;48.780;9.146;2023-02-28T00:37:41;-1.40;99.90
7512;DHT22;9999;48.780;9.146;2023-02-28T00:40:08;-1.40;99.90
7512;DHT22;9999;48.780;9.146;2023-02-28T00:42:37;-1.40;99.90
7512;DHT22;9999;48.780;9.146;2023-02-28T00:45:04;-1.50;99.90
7512;DHT22;9999;48.780;9.146;2023-02-28T00:47:32;-1.50;99.90
7512;DHT22;9999;48.780;9.146;2023-02-28T00:50:00;-1.50;99.90
7512;DHT22;9999;48.780;9.146;2023-02-28T00:52:27;-1.40;99.90
7512;DHT22;9999;48.780;9.146;2023-02-28T00:54:54;-1.40;99.90
7512;DHT22;9999;48.780;9.146;2023-02-28T00:57:21;-1.40;99.90
7512;DHT22;9999;48.780;9.146;2023-02-28T00:59:48;-1.50;99.90
7512;DHT22;9999;48.780;9.146;2023-02-28T01:02:15;-1.50;99.90
7512;DHT22;9999;48.780;9.146;2023-02-28T01:04:43;-1.50;99.90
7512;DHT22;9999;48.780;9.146;2023-02-28T01:07:11;-1.50;99.90
7512;DHT22;9999;48.780;9.146;2023-02-28T01:09:39;-1.60;99.90
7512;DHT22;9999;48.780;9.146;2023-02-28T01:12:07;-1.60;99.90
7512;DHT22;9999;48.780;9.146;2023-02-28T01:14:34;-1.50;99.90
7512;DHT22;9999;48.780;9.146;2023-02-28T01:17:01;-1.50;99.90
7512;DHT22;9999;48.780;9.146;2023-02-28T01:19:28;-1.50;99.90
7512;DHT22;9999;48.780;9.146;2023-02-28T01:21:55;-1.50;99.90
7512;DHT22;9999;48.780;9.146;2023-02-28T01:24:23;-1.50;99.90
7512;DHT22;9999;48.780;9.146;2023-02-28T01:26:49;-1.50;99.90
7512;DHT22;9999;48.780;9.146;2023-02-28T01:29:16;-1.60;99.90
7512;DHT22;9999;48.780;9.146;2023-02-28T01:31:43;-1.60;99.90
7512;DHT22;9999;48.780;9.146;2023-02-28T01:34:10;-1.70;99.90
7512;DHT22;9999;48.780;9.146;2023-02-28T01:36:37;-1.60;99.90
7512;DHT22;9999;48.780;9.146;2023-02-28T01:39:04;-1.60;99.90
7512;DHT22;9999;48.780;9.146;2023-02-28T01:41:33;-1.70;99.90
7512;DHT22;9999;48.780;9.146;2023-02-28T01:44:04;-1.70;99.90
7512;DHT22;9999;48.780;9.146;2023-02-28T01:46:32;-1.60;99.90
7512;DHT22;9999;48.780;9.146;2023-02-28T01:49:05;-1.60;99.90
7512;DHT22;9999;48.780;9.146;2023-02-28T01:51:38;-1.60;99.90
7512;DHT22;9999;48.780;9.146;2023-02-28T01:54:14;-1.70;99.90
7512;DHT22;9999;48.780;9.146;2023-02-28T01:56:45;-1.70;99.90
7512;DHT22;9999;48.780;9.146;2023-02-28T01:59:14;-1.70;99.90
7512;DHT22;9999;48.780;9.146;2023-02-28T02:01:43;-1.80;99.90
7512;DHT22;9999;48.780;9.146;2023-02-28T02:04:10;-1.70;99.90
7512;DHT22;9999;48.780;9.146;2023-02-28T02:06:40;-1.70;99.90
7512;DHT22;9999;48.780;9.146;2023-02-28T02:09:09;-1.70;99.90
7512;DHT22;9999;48.780;9.146;2023-02-28T02:11:37;-1.70;99.90
7512;DHT22;9999;48.780;9.146;2023-02-28T02:14:19;-1.80;99.90
7512;DHT22;9999;48.780;9.146;2023-02-28T02:17:05;-1.80;99.90
7512;DHT22;9999;48.780;9.146;2023-02-28T02:22:59;-1.70;99.90
7512;DHT22;9999;48.780;9.146;2023-02-28T02:25:30;-1.70;99.90
7512;DHT22;9999;48.780;9.146;2023-02-28T02:28:32;-1.80;99.90
7512;DHT22;9999;48.780;9.146;2023-02-28T02:31:26;-1.80;99.90
7512;DHT22;9999;48.780;9.146;2023-02-28T02:34:28;-1.70;99.90
7512;DHT22;9999;48.780;9.146;2023-02-28T02:37:06;-1.70;99.90
7512;DHT22;9999;48.780;9.146;2023-02-28T02:39:40;-1.70;99.90
7512;DHT22;9999;48.780;9.146;2023-02-28T02:42:16;-1.70;99.90
7512;DHT22;9999;48.780;9.146;2023-02-28T02:44:47;-1.70;99.90
7512;DHT22;9999;48.780;9.146;2023-02-28T02:47:18;-1.60;99.90
7512;DHT22;9999;48.780;9.146;2023-02-28T02:49:50;-1.60;99.90
7512;DHT22;9999;48.780;9.146;2023-02-28T02:52:21;-1.60;99.90
7512;DHT22;9999;48.780;9.146;2023-02-28T02:54:54;-1.60;99.90
7512;DHT22;9999;48.780;9.146;2023-02-28T02:57:30;-1.60;99.90
7512;DHT22;9999;48.780;9.146;2023-02-28T02:59:59;-1.60;99.90
7512;DHT22;9999;48.780;9.146;2023-02-28T03:02:29;-1.60;99.90
7512;DHT22;9999;48.780;9.146;2023-02-28T03:05:04;-1.60;99.90
7512;DHT22;9999;48.780;9.146;2023-02-28T03:07:32;-1.60;99.90
7512;DHT22;9999;48.780;9.146;2023-02-28T03:09:58;-1.50;99.90
7512;DHT22;9999;48.780;9.146;2023-02-28T03:12:32;-1.60;99.90
7512;DHT22;9999;48.780;9.146;2023-02-28T03:15:07;-1.50;99.90
7512;DHT22;9999;48.780;9.146;2023-02-28T03:17:46;-1.50;99.90
7512;DHT22;9999;48.780;9.146;2023-02-28T03:20:27;-1.50;99.90
7512;DHT22;9999;48.780;9.146;2023-02-28T03:23:08;-1.50;99.90
7512;DHT22;9999;48.780;9.146;2023-02-28T03:25:42;-1.50;99.90
7512;DHT22;9999;48.780;9.146;2023-02-28T03:28:18;-1.50;99.90
7512;DHT22;9999;48.780;9.146;2023-02-28T03:30:49;-1.50;99.90
7512;DHT22;9999;48.780;9.146;2023-02-28T03:33:22;-1.50;99.90
7512;DHT22;9999;48.780;9.146;2023-02-28T03:35:55;-1.60;99.90
7512;DHT22;9999;48.780;9.146;2023-02-28T03:38:28;-1.60;99.90
7512;DHT22;9999;48.780;9.146;2023-02-28T03:41:00;-1.50;99.90
7512;DHT22;9999;48.780;9.146;2023-02-28T03:43:33;-1.50;99.90
7512;DHT22;9999;48.780;9.146;2023-02-28T03:46:04;-1.50;99.90
7512;DHT22;9999;48.780;9.146;2023-02-28T03:48:36;-1.50;99.90
7512;DHT22;9999;48.780;9.146;2023-02-28T03:51:07;-1.50;99.90
7512;DHT22;9999;48.780;9.146;2023-02-28T03:53:37;-1.50;99.90
7512;DHT22;9999;48.780;9.146;2023-02-28T03:56:09;-1.50;99.90
7512;DHT22;9999;48.780;9.146;2023-02-28T03:58:44;-1.50;99.90
7512;DHT22;9999;48.780;9.146;2023-02-28T04:01:18;-1.40;99.90
7512;DHT22;9999;48.780;9.146;2023-02-28T04:03:46;-1.40;99.90
7512;DHT22;9999;48.780;9.146;2023-02-28T04:06:16;-1.40;99.90
7512;DHT22;9999;48.780;9.146;2023-02-28T04:08:44;-1.40;99.90
7512;DHT22;9999;48.780;9.146;2023-02-28T04:11:20;-1.40;99.90
7512;DHT22;9999;48.780;9.146;2023-02-28T04:13:47;-1.40;99.90
7512;DHT22;9999;48.780;9.146;2023-02-28T04:16:14;-1.40;99.90
7512;DHT22;9999;48.780;9.146;2023-02-28T04:18:42;-1.40;99.90
7512;DHT22;9999;48.780;9.146;2023-02-28T04:21:10;-1.40;99.90
7512;DHT22;9999;48.780;9.146;2023-02-28T04:23:38;-1.40;99.90
7512;DHT22;9999;48.780;9.146;2023-02-28T04:26:06;-1.30;99.90
7512;DHT22;9999;48.780;9.146;2023-02-28T04:28:33;-1.30;99.90
7512;DHT22;9999;48.780;9.146;2023-02-28T04:31:01;-1.30;99.90
7512;DHT22;9999;48.780;9.146;2023-02-28T04:33:29;-1.30;99.90
7512;DHT22;9999;48.780;9.146;2023-02-28T04:36:01;-1.30;99.90
7512;DHT22;9999;48.780;9.146;2023-02-28T04:38:28;-1.30;99.90
7512;DHT22;9999;48.780;9.146;2023-02-28T04:40:58;-1.40;99.90
7512;DHT22;9999;48.780;9.146;2023-02-28T04:43:26;-1.30;99.90
7512;DHT22;9999;48.780;9.146;2023-02-28T04:45:52;-1.40;99.90
7512;DHT22;9999;48.780;9.146;2023-02-28T04:48:22;-1.30;99.90
7512;DHT22;9999;48.780;9.146;2023-02-28T04:50:49;-1.30;99.90
7512;DHT22;9999;48.780;9.146;2023-02-28T04:53:15;-1.30;99.90
7512;DHT22;9999;48.780;9.146;2023-02-28T04:55:42;-1.30;99.90
7512;DHT22;9999;48.780;9.146;2023-02-28T04:58:10;-1.30;99.90
7512;DHT22;9999;48.780;9.146;2023-02-28T05:00:37;-1.30;99.90
7512;DHT22;9999;48.780;9.146;2023-02-28T05:03:04;-1.30;99.90
7512;DHT22;9999;48.780;9.146;2023-02-28T05:05:31;-1.30;99.90
7512;DHT22;9999;48.780;9.146;2023-02-28T05:07:58;-1.30;99.90
7512;DHT22;9999;48.780;9.146;2023-02-28T05:10:25;-1.30;99.90
7512;DHT22;9999;48.780;9.146;2023-02-28T05:12:52;-1.30;99.90
7512;DHT22;9999;48.780;9.146;2023-02-28T05:15:20;-1.30;99.90
7512;DHT22;9999;48.780;9.146;2023-02-28T05:17:47;-1.30;99.90
7512;DHT22;9999;48.780;9.146;2023-02-28T05:20:14;-1.30;99.90
7512;DHT22;9999;48.780;9.146;2023-02-28T05:22:41;-1.30;99.90
7512;DHT22;9999;48.780;9.146;2023-02-28T05:25:09;-1.30;99.90
7512;DHT22;9999;48.780;9.146;2023-02-28T05:27:37;-1.20;99.90
7512;DHT22;9999;48.780;9.146;2023-02-28T05:30:05;-1.20;99.90
7512;DHT22;9999;48.780;9.146;2023-02-28T05:32:34;-1.20;99.90
7512;DHT22;9999;48.780;9.146;2023-02-28T05:35:01;-1.20;99.90
7512;DHT22;9999;48.780;9.146;2023-02-28T05:37:28;-1.20;99.90
7512;DHT22;9999;48.780;9.146;2023-02-28T05:39:54;-1.20;99.90
7512;DHT22;9999;48.780;9.146;2023-02-28T05:42:21;-1.20;99.90
7512;DHT22;9999;48.780;9.146;2023-02-28T05:44:48;-1.30;99.90
7512;DHT22;9999;48.780;9.146;2023-02-28T05:47:14;-1.20;99.90
7512;DHT22;9999;48.780;9.146;2023-02-28T05:49:43;-1.20;99.90
7512;DHT22;9999;48.780;9.146;2023-02-28T05:52:10;-1.20;99.90
7512;DHT22;9999;48.780;9.146;2023-02-28T05:54:37;-1.20;99.90
7512;DHT22;9999;48.780;9.146;2023-02-28T05:57:03;-1.20;99.90
7512;DHT22;9999;48.780;9.146;2023-02-28T05:59:30;-1.20;99.90
7512;DHT22;9999;48.780;9.146;2023-02-28T06:01:57;-1.20;99.90
7512;DHT22;9999;48.780;9.146;2023-02-28T06:04:24;-1.20;99.90
7512;DHT22;9999;48.780;9.146;2023-02-28T06:06:52;-1.20;99.90
7512;DHT22;9999;48.780;9.146;2023-02-28T06:09:19;-1.20;99.90
7512;DHT22;9999;48.780;9.146;2023-02-28T06:11:46;-1.20;99.90
7512;DHT22;9999;48.780;9.146;2023-02-28T06:14:15;-1.20;99.90
7512;DHT22;9999;48.780;9.146;2023-02-28T06:16:43;-1.10;99.90
7512;DHT22;9999;48.780;9.146;2023-02-28T06:19:10;-1.20;99.90
7512;DHT22;9999;48.780;9.146;2023-02-28T06:21:37;-1.20;99.90
7512;DHT22;9999;48.780;9.146;2023-02-28T06:24:05;-1.20;99.90
7512;DHT22;9999;48.780;9.146;2023-02-28T06:26:32;-1.20;99.90
7512;DHT22;9999;48.780;9.146;2023-02-28T06:29:00;-1.20;99.90
7512;DHT22;9999;48.780;9.146;2023-02-28T06:31:27;-1.10;99.90
7512;DHT22;9999;48.780;9.146;2023-02-28T06:33:54;-1.10;99.90
7512;DHT22;9999;48.780;9.146;2023-02-28T06:36:21;-1.10;99.90
7512;DHT22;9999;48.780;9.146;2023-02-28T06:38:48;-1.10;99.90
7512;DHT22;9999;48.780;9.146;2023-02-28T06:41:22;-1.20;99.90
7512;DHT22;9999;48.780;9.146;2023-02-28T06:43:48;-1.20;99.90
7512;DHT22;9999;48.780;9.146;2023-02-28T06:46:15;-1.20;99.90
7512;DHT22;9999;48.780;9.146;2023-02-28T06:48:43;-1.20;99.90
7512;DHT22;9999;48.780;9.146;2023-02-28T06:51:11;-1.20;99.90
7512;DHT22;9999;48.780;9.146;2023-02-28T06:53:38;-1.10;99.90
7512;DHT22;9999;48.780;9.146;2023-02-28T06:56:07;-1.10;99.90
7512;DHT22;9999;48.780;9.146;2023-02-28T06:58:36;-1.10;99.90
7512;DHT22;9999;48.780;9.146;2023-02-28T07:01:03;-1.10;99.90
7512;DHT22;9999;48.780;9.146;2023-02-28T07:03:30;-1.00;99.90
7512;DHT22;9999;48.780;9.146;2023-02-28T07:05:57;-1.00;99.90
7512;DHT22;9999;48.780;9.146;2023-02-28T07:08:25;-1.00;99.90
7512;DHT22;9999;48.780;9.146;2023-02-28T07:10:52;-1.00;99.90
7512;DHT22;9999;48.780;9.146;2023-02-28T07:13:20;-0.90;99.90
7512;DHT22;9999;48.780;9.146;2023-02-28T07:15:54;-0.90;99.90
7512;DHT22;9999;48.780;9.146;2023-02-28T07:18:21;-0.90;99.90
7512;DHT22;9999;48.780;9.146;2023-02-28T07:20:48;-0.90;99.90
7512;DHT22;9999;48.780;9.146;2023-02-28T07:23:16;-0.90;99.90
7512;DHT22;9999;48.780;9.146;2023-02-28T07:25:42;-0.90;99.90
7512;DHT22;9999;48.780;9.146;2023-02-28T07:28:11;-0.90;99.90
7512;DHT22;9999;48.780;9.146;2023-02-28T07:30:38;-0.80;99.90
7512;DHT22;9999;48.780;9.146;2023-02-28T07:33:06;-0.80;99.90
7512;DHT22;9999;48.780;9.146;2023-02-28T07:35:33;-0.80;99.90
7512;DHT22;9999;48.780;9.146;2023-02-28T07:38:00;-0.80;99.90
7512;DHT22;9999;48.780;9.146;2023-02-28T07:40:28;-0.80;99.90
7512;DHT22;9999;48.780;9.146;2023-02-28T07:42:55;-0.70;99.90
7512;DHT22;9999;48.780;9.146;2023-02-28T07:45:21;-0.70;99.90
7512;DHT22;9999;48.780;9.146;2023-02-28T07:47:48;-0.70;99.90
7512;DHT22;9999;48.780;9.146;2023-02-28T07:50:16;-0.70;99.90
7512;DHT22;9999;48.780;9.146;2023-02-28T07:52:43;-0.70;99.90
7512;DHT22;9999;48.780;9.146;2023-02-28T07:55:10;-0.70;99.90
7512;DHT22;9999;48.780;9.146;2023-02-28T07:57:37;-0.70;99.90
7512;DHT22;9999;48.780;9.146;2023-02-28T08:00:06;-0.60;99.90
7512;DHT22;9999;48.780;9.146;2023-02-28T08:02:37;-0.60;99.90
7512;DHT22;9999;48.780;9.146;2023-02-28T08:05:05;-0.60;99.90
7512;DHT22;9999;48.780;9.146;2023-02-28T08:07:33;-0.70;99.90
7512;DHT22;9999;48.780;9.146;2023-02-28T08:10:00;-0.60;99.90
7512;DHT22;9999;48.780;9.146;2023-02-28T08:12:27;-0.60;99.90
7512;DHT22;9999;48.780;9.146;2023-02-28T08:14:54;-0.60;99.90
7512;DHT22;9999;48.780;9.146;2023-02-28T08:17:20;-0.50;99.90
7512;DHT22;9999;48.780;9.146;2023-02-28T08:19:47;-0.50;99.90
7512;DHT22;9999;48.780;9.146;2023-02-28T08:22:14;-0.50;99.90
7512;DHT22;9999;48.780;9.146;2023-02-28T08:24:42;-0.50;99.90
7512;DHT22;9999;48.780;9.146;2023-02-28T08:27:09;-0.40;99.90
7512;DHT22;9999;48.780;9.146;2023-02-28T08:29:36;-0.50;99.90
7512;DHT22;9999;48.780;9.146;2023-02-28T08:32:04;-0.40;99.90
7512;DHT22;9999;48.780;9.146;2023-02-28T08:34:31;-0.40;99.90
7512;DHT22;9999;48.780;9.146;2023-02-28T08:36:57;-0.50;99.90
7512;DHT22;9999;48.780;9.146;2023-02-28T08:39:24;-0.50;99.90
7512;DHT22;9999;48.780;9.146;2023-02-28T08:41:52;-0.40;99.90
7512;DHT22;9999;48.780;9.146;2023-02-28T08:44:19;-0.40;99.90
7512;DHT22;9999;48.780;9.146;2023-02-28T08:46:46;-0.40;99.90
7512;DHT22;9999;48.780;9.146;2023-02-28T08:49:13;-0.30;99.90
7512;DHT22;9999;48.780;9.146;2023-02-28T08:51:40;-0.30;99.90
7512;DHT22;9999;48.780;9.146;2023-02-28T08:54:08;-0.20;99.90
7512;DHT22;9999;48.780;9.146;2023-02-28T08:56:36;-0.20;99.90
7512;DHT22;9999;48.780;9.146;2023-02-28T08:59:04;-0.10;99.90
7512;DHT22;9999;48.780;9.146;2023-02-28T09:01:31;-0.20;99.90
7512;DHT22;9999;48.780;9.146;2023-02-28T09:03:58;-0.20;99.90
7512;DHT22;9999;48.780;9.146;2023-02-28T09:06:26;-0.30;99.90
7512;DHT22;9999;48.780;9.146;2023-02-28T09:08:55;-0.20;99.90
7512;DHT22;9999;48.780;9.146;2023-02-28T09:11:23;-0.20;99.90
7512;DHT22;9999;48.780;9.146;2023-02-28T09:13:50;-0.20;99.90
7512;DHT22;9999;48.780;9.146;2023-02-28T09:16:18;-0.10;99.90
7512;DHT22;9999;48.780;9.146;2023-02-28T09:18:45;-0.10;99.90
7512;DHT22;9999;48.780;9.146;2023-02-28T09:21:14;-0.10;99.90
7512;DHT22;9999;48.780;9.146;2023-02-28T09:23:42;0.00;99.90
7512;DHT22;9999;48.780;9.146;2023-02-28T09:26:13;0.00;99.90
7512;DHT22;9999;48.780;9.146;2023-02-28T09:28:40;0.00;99.90
7512;DHT22;9999;48.780;9.146;2023-02-28T09:31:12;0.10;99.90
7512;DHT22;9999;48.780;9.146;2023-02-28T09:33:41;0.00;99.90
7512;DHT22;9999;48.780;9.146;2023-02-28T09:36:08;0.10;99.90
7512;DHT22;9999;48.780;9.146;2023-02-28T09:38:35;0.10;99.90
7512;DHT22;9999;48.780;9.146;2023-02-28T09:41:08;0.20;99.90
7512;DHT22;9999;48.780;9.146;2023-02-28T09:43:39;0.20;99.90
7512;DHT22;9999;48.780;9.146;2023-02-28T09:46:14;0.30;99.90
7512;DHT22;9999;48.780;9.146;2023-02-28T09:48:47;0.30;99.90
7512;DHT22;9999;48.780;9.146;2023-02-28T09:51:27;0.30;99.90
7512;DHT22;9999;48.780;9.146;2023-02-28T09:53:55;0.30;99.90
7512;DHT22;9999;48.780;9.146;2023-02-28T09:56:25;0.40;99.90
7512;DHT22;9999;48.780;9.146;2023-02-28T09:58:56;0.40;99.90
7512;DHT22;9999;48.780;9.146;2023-02-28T10:01:31;0.40;99.90
7512;DHT22;9999;48.780;9.146;2023-02-28T10:04:05;0.50;99.90
7512;DHT22;9999;48.780;9.146;2023-02-28T10:06:39;0.50;99.90
7512;DHT22;9999;48.780;9.146;2023-02-28T10:09:11;0.60;99.90
7512;DHT22;9999;48.780;9.146;2023-02-28T10:11:40;0.60;99.90
7512;DHT22;9999;48.780;9.146;2023-02-28T10:14:13;0.60;99.90
7512;DHT22;9999;48.780;9.146;2023-02-28T10:16:43;0.70;99.90
7512;DHT22;9999;48.780;9.146;2023-02-28T10:19:18;0.60;99.90
7512;DHT22;9999;48.780;9.146;2023-02-28T10:21:51;0.60;99.90
7512;DHT22;9999;48.780;9.146;2023-02-28T10:24:26;0.70;99.90
7512;DHT22;9999;48.780;9.146;2023-02-28T10:26:59;0.70;99.90
7512;DHT22;9999;48.780;9.146;2023-02-28T10:29:26;0.90;99.90
7512;DHT22;9999;48.780;9.146;2023-02-28T10:31:55;1.00;99.90
7512;DHT22;9999;48.780;9.146;2023-02-28T10:34:24;0.90;99.90
7512;DHT22;9999;48.780;9.146;2023-02-28T10:36:51;1.00;99.90
7512;DHT22;9999;48.780;9.146;2023-02-28T10:39:35;1.10;99.90
7512;DHT22;9999;48.780;9.146;2023-02-28T10:42:03;1.20;99.90
7512;DHT22;9999;48.780;9.146;2023-02-28T10:44:30;1.30;99.90
7512;DHT22;9999;48.780;9.146;2023-02-28T10:46:57;1.40;99.90
7512;DHT22;9999;48.780;9.146;2023-02-28T10:49:27;1.50;99.90
7512;DHT22;9999;48.780;9.146;2023-02-28T10:51:56;1.50;99.90
7512;DHT22;9999;48.780;9.146;2023-02-28T10:54:27;1.50;99.90
7512;DHT22;9999;48.780;9.146;2023-02-28T10:57:17;1.50;99.90
7512;DHT22;9999;48.780;9.146;2023-02-28T10:59:45;1.50;99.90
7512;DHT22;9999;48.780;9.146;2023-02-28T11:02:31;1.60;99.90
7512;DHT22;9999;48.780;9.146;2023-02-28T11:04:59;1.70;99.90
7512;DHT22;9999;48.780;9.146;2023-02-28T11:07:27;1.60;99.90
7512;DHT22;9999;48.780;9.146;2023-02-28T11:09:56;1.80;99.90
7512;DHT22;9999;48.780;9.146;2023-02-28T11:12:25;2.20;99.90
7512;DHT22;9999;48.780;9.146;2023-02-28T11:14:56;2.50;99.90
7512;DHT22;9999;48.780;9.146;2023-02-28T11:17:26;2.90;99.90
7512;DHT22;9999;48.780;9.146;2023-02-28T11:19:56;3.30;99.90
7512;DHT22;9999;48.780;9.146;2023-02-28T11:22:27;3.60;99.90
7512;DHT22;9999;48.780;9.146;2023-02-28T11:24:58;3.80;99.90
7512;DHT22;9999;48.780;9.146;2023-02-28T11:27:48;4.00;99.90
7512;DHT22;9999;48.780;9.146;2023-02-28T11:30:30;4.10;99.90
7512;DHT22;9999;48.780;9.146;2023-02-28T11:32:57;4.20;99.90
7512;DHT22;9999;48.780;9.146;2023-02-28T11:35:27;4.30;99.90
7512;DHT22;9999;48.780;9.146;2023-02-28T11:37:57;4.30;99.90
7512;DHT22;9999;48.780;9.146;2023-02-28T11:40:30;4.20;99.90
7512;DHT22;9999;48.780;9.146;2023-02-28T11:43:06;4.40;99.90
7512;DHT22;9999;48.780;9.146;2023-02-28T11:45:44;4.60;99.90
7512;DHT22;9999;48.780;9.146;2023-02-28T11:48:18;4.70;99.90
7512;DHT22;9999;48.780;9.146;2023-02-28T11:50:52;4.60;99.90
7512;DHT22;9999;48.780;9.146;2023-02-28T11:53:44;4.70;99.90
7512;DHT22;9999;48.780;9.146;2023-02-28T11:56:20;4.90;99.90
7512;DHT22;9999;48.780;9.146;2023-02-28T11:58:59;5.10;99.90
7512;DHT22;9999;48.780;9.146;2023-02-28T12:01:38;5.10;99.90
7512;DHT22;9999;48.780;9.146;2023-02-28T12:04:22;5.20;99.90
7512;DHT22;9999;48.780;9.146;2023-02-28T12:06:56;5.20;99.90
7512;DHT22;9999;48.780;9.146;2023-02-28T12:09:38;5.50;99.90
7512;DHT22;9999;48.780;9.146;2023-02-28T12:12:15;5.60;99.90
7512;DHT22;9999;48.780;9.146;2023-02-28T12:15:15;5.50;99.90
7512;DHT22;9999;48.780;9.146;2023-02-28T12:18:04;5.20;99.90
7512;DHT22;9999;48.780;9.146;2023-02-28T12:20:38;4.90;99.90
7512;DHT22;9999;48.780;9.146;2023-02-28T12:23:25;5.10;99.90
7512;DHT22;9999;48.780;9.146;2023-02-28T12:26:01;5.40;99.90
7512;DHT22;9999;48.780;9.146;2023-02-28T12:28:31;5.60;99.90
7512;DHT22;9999;48.780;9.146;2023-02-28T12:31:04;5.70;99.90
7512;DHT22;9999;48.780;9.146;2023-02-28T12:33:35;5.80;99.90
7512;DHT22;9999;48.780;9.146;2023-02-28T12:36:07;5.60;99.90
7512;DHT22;9999;48.780;9.146;2023-02-28T12:38:41;5.50;99.90
7512;DHT22;9999;48.780;9.146;2023-02-28T12:41:14;5.80;99.90
7512;DHT22;9999;48.780;9.146;2023-02-28T12:43:45;5.80;99.90
7512;DHT22;9999;48.780;9.146;2023-02-28T12:46:17;6.00;99.90
7512;DHT22;9999;48.780;9.146;2023-02-28T12:48:48;6.00;99.90
7512;DHT22;9999;48.780;9.146;2023-02-28T12:51:17;6.00;99.90
7512;DHT22;9999;48.780;9.146;2023-02-28T12:53:53;6.00;99.90
7512;DHT22;9999;48.780;9.146;2023-02-28T12:56:30;6.10;99.90
7512;DHT22;9999;48.780;9.146;2023-02-28T12:59:03;6.30;99.20
7512;DHT22;9999;48.780;9.146;2023-02-28T13:02:01;6.40;99.70
7512;DHT22;9999;48.780;9.146;2023-02-28T13:05:05;6.40;97.00
7512;DHT22;9999;48.780;9.146;2023-02-28T13:08:09;6.30;99.50
7512;DHT22;9999;48.780;9.146;2023-02-28T13:10:42;6.40;99.90
7512;DHT22;9999;48.780;9.146;2023-02-28T13:13:16;6.40;99.90
7512;DHT22;9999;48.780;9.146;2023-02-28T13:16:04;6.50;95.70
7512;DHT22;9999;48.780;9.146;2023-02-28T13:18:34;6.60;97.80
7512;DHT22;9999;48.780;9.146;2023-02-28T13:21:03;6.60;95.70
7512;DHT22;9999;48.780;9.146;2023-02-28T13:23:57;6.50;97.30
7512;DHT22;9999;48.780;9.146;2023-02-28T13:29:35;6.60;95.30
7512;DHT22;9999;48.780;9.146;2023-02-28T13:32:31;6.70;98.20
7512;DHT22;9999;48.780;9.146;2023-02-28T13:35:35;6.80;94.00
7512;DHT22;9999;48.780;9.146;2023-02-28T13:38:33;6.80;96.00
7512;DHT22;9999;48.780;9.146;2023-02-28T13:44:06;6.40;96.60
7512;DHT22;9999;48.780;9.146;2023-02-28T13:46:37;6.50;97.80
7512;DHT22;9999;48.780;9.146;2023-02-28T13:49:25;6.60;97.20
7512;DHT22;9999;48.780;9.146;2023-02-28T13:52:02;6.60;97.40
7512;DHT22;9999;48.780;9.146;2023-02-28T13:54:40;6.50;95.90
7512;DHT22;9999;48.780;9.146;2023-02-28T13:57:21;6.40;97.40
7512;DHT22;9999;48.780;9.146;2023-02-28T14:00:00;6.50;96.20
7512;DHT22;9999;48.780;9.146;2023-02-28T14:03:05;6.60;97.10
7512;DHT22;9999;48.780;9.146;2023-02-28T14:05:34;6.60;94.50
7512;DHT22;9999;48.780;9.146;2023-02-28T14:08:06;6.70;95.00
7512;DHT22;9999;48.780;9.146;2023-02-28T14:10:44;6.60;94.60
7512;DHT22;9999;48.780;9.146;2023-02-28T14:15:56;6.60;95.10
7512;DHT22;9999;48.780;9.146;2023-02-28T14:18:28;6.70;95.90
7512;DHT22;9999;48.780;9.146;2023-02-28T14:21:01;6.70;94.30
7512;DHT22;9999;48.780;9.146;2023-02-28T14:26:56;6.60;93.60
7512;DHT22;9999;48.780;9.146;2023-02-28T14:29:41;6.70;95.60
7512;DHT22;9999;48.780;9.146;2023-02-28T14:32:14;6.60;92.50
7512;DHT22;9999;48.780;9.146;2023-02-28T14:34:52;6.40;95.00
7512;DHT22;9999;48.780;9.146;2023-02-28T14:37:23;6.60;94.80
7512;DHT22;9999;48.780;9.146;2023-02-28T14:39:51;6.60;95.90
7512;DHT22;9999;48.780;9.146;2023-02-28T14:42:28;6.40;94.00
7512;DHT22;9999;48.780;9.146;2023-02-28T14:44:56;6.30;93.60
7512;DHT22;9999;48.780;9.146;2023-02-28T14:47:26;6.40;94.10
7512;DHT22;9999;48.780;9.146;2023-02-28T14:49:55;6.30;93.90
7512;DHT22;9999;48.780;9.146;2023-02-28T14:52:24;6.40;94.10
7512;DHT22;9999;48.780;9.146;2023-02-28T14:54:54;6.30;94.60
7512;DHT22;9999;48.780;9.146;2023-02-28T14:57:23;6.30;95.10
7512;DHT22;9999;48.780;9.146;2023-02-28T14:59:58;6.20;95.50
7512;DHT22;9999;48.780;9.146;2023-02-28T15:02:29;6.00;93.90
7512;DHT22;9999;48.780;9.146;2023-02-28T15:05:00;6.10;95.80
7512;DHT22;9999;48.780;9.146;2023-02-28T15:07:28;6.10;95.20
7512;DHT22;9999;48.780;9.146;2023-02-28T15:10:22;6.10;94.80
7512;DHT22;9999;48.780;9.146;2023-02-28T15:12:52;6.20;95.90
7512;DHT22;9999;48.780;9.146;2023-02-28T15:15:22;6.20;96.50
7512;DHT22;9999;48.780;9.146;2023-02-28T15:17:52;6.10;96.70
7512;DHT22;9999;48.780;9.146;2023-02-28T15:20:21;6.10;95.90
7512;DHT22;9999;48.780;9.146;2023-02-28T15:22:51;6.00;95.40
7512;DHT22;9999;48.780;9.146;2023-02-28T15:25:21;6.00;96.60
7512;DHT22;9999;48.780;9.146;2023-02-28T15:27:50;6.00;97.40
7512;DHT22;9999;48.780;9.146;2023-02-28T15:30:19;5.90;96.80
7512;DHT22;9999;48.780;9.146;2023-02-28T15:33:04;6.00;96.90
7512;DHT22;9999;48.780;9.146;2023-02-28T15:35:33;5.90;97.30
7512;DHT22;9999;48.780;9.146;2023-02-28T15:38:02;5.80;97.20
7512;DHT22;9999;48.780;9.146;2023-02-28T15:40:31;5.80;98.60
7512;DHT22;9999;48.780;9.146;2023-02-28T15:43:14;5.60;98.30
7512;DHT22;9999;48.780;9.146;2023-02-28T15:45:45;5.60;98.30
7512;DHT22;9999;48.780;9.146;2023-02-28T15:48:18;5.50;99.00
7512;DHT22;9999;48.780;9.146;2023-02-28T15:50:50;5.50;99.30
7512;DHT22;9999;48.780;9.146;2023-02-28T15:53:20;5.60;97.20
7512;DHT22;9999;48.780;9.146;2023-02-28T15:55:54;5.50;98.70
7512;DHT22;9999;48.780;9.146;2023-02-28T15:58:22;5.40;97.70
7512;DHT22;9999;48.780;9.146;2023-02-28T16:01:03;5.30;98.80
7512;DHT22;9999;48.780;9.146;2023-02-28T16:03:39;5.20;98.50
7512;DHT22;9999;48.780;9.146;2023-02-28T16:06:24;5.20;99.30
7512;DHT22;9999;48.780;9.146;2023-02-28T16:08:52;5.10;99.90
7512;DHT22;9999;48.780;9.146;2023-02-28T16:11:20;5.00;98.40
7512;DHT22;9999;48.780;9.146;2023-02-28T16:13:48;4.90;99.40
7512;DHT22;9999;48.780;9.146;2023-02-28T16:16:16;4.80;99.90
7512;DHT22;9999;48.780;9.146;2023-02-28T16:18:44;4.80;99.90
7512;DHT22;9999;48.780;9.146;2023-02-28T16:21:11;4.70;99.90
7512;DHT22;9999;48.780;9.146;2023-02-28T16:23:39;4.60;99.90
7512;DHT22;9999;48.780;9.146;2023-02-28T16:26:08;4.60;99.90
7512;DHT22;9999;48.780;9.146;2023-02-28T16:28:37;4.50;99.90
7512;DHT22;9999;48.780;9.146;2023-02-28T16:31:06;4.50;99.90
7512;DHT22;9999;48.780;9.146;2023-02-28T16:33:33;4.50;99.90
7512;DHT22;9999;48.780;9.146;2023-02-28T16:36:00;4.50;99.90
7512;DHT22;9999;48.780;9.146;2023-02-28T16:38:27;4.40;99.90
7512;DHT22;9999;48.780;9.146;2023-02-28T16:40:58;4.30;99.90
7512;DHT22;9999;48.780;9.146;2023-02-28T16:43:26;4.30;99.90
7512;DHT22;9999;48.780;9.146;2023-02-28T16:45:55;4.20;99.90
7512;DHT22;9999;48.780;9.146;2023-02-28T16:48:23;4.10;99.90
7512;DHT22;9999;48.780;9.146;2023-02-28T16:50:51;4.10;99.90